sensor_id;sensor_type;location;lat;lon;timestamp;pressure;altitude;pressure_sealevel;temperature;humidity
47366;BME280;33105;47.964;7.982;2024-03-02T00:01:21;95521.50;;;4.66;97.46
47366;BME280;33105;47.964;7.982;2024-03-02T00:04:27;95528.44;;;4.57;97.60
47366;BME280;33105;47.964;7.982;2024-03-02T00:17:17;95526.38;;;3.98;99.21
47366;BME280;33105;47.964;7.982;2024-03-02T00:20:47;95531.34;;;3.85;99.87
47366;BME280;33105;47.964;7.982;2024-03-02T00:23:59;95530.19;;;3.81;100.00
47366;BME280;33105;47.964;7.982;2024-03-02T00:41:14;95527.56;;;3.86;100.00
47366;BME280;33105;47.964;7.982;2024-03-02T00:44:59;95528.06;;;3.83;100.00
47366;BME280;33105;47.964;7.982;2024-03-02T00:48:35;95532.84;;;3.75;100.00
47366;BME280;33105;47.964;7.982;2024-03-02T00:51:47;95526.47;;;3.65;100.00
47366;BME280;33105;47.964;7.982;2024-03-02T00:54:52;95531.22;;;3.58;100.00
47366;BME280;33105;47.964;7.982;2024-03-02T00:57:53;95537.69;;;3.57;100.00
47366;BME280;33105;47.964;7.982;2024-03-02T01:00:54;95526.91;;;3.57;100.00
47366;BME280;33105;47.964;7.982;2024-03-02T01:03:56;95529.34;;;3.58;100.00
47366;BME280;33105;47.964;7.982;2024-03-02T01:06:58;95523.06;;;3.53;100.00
47366;BME280;33105;47.964;7.982;2024-03-02T01:10:02;95520.75;;;3.61;100.00
47366;BME280;33105;47.964;7.982;2024-03-02T01:13:04;95525.63;;;3.42;100.00
47366;BME280;33105;47.964;7.982;2024-03-02T01:16:05;95523.50;;;3.45;100.00
47366;BME280;33105;47.964;7.982;2024-03-02T01:19:07;95534.91;;;3.52;100.00
47366;BME280;33105;47.964;7.982;2024-03-02T01:22:09;95523.78;;;3.48;100.00
47366;BME280;33105;47.964;7.982;2024-03-02T01:25:11;95522.84;;;3.37;100.00
47366;BME280;33105;47.964;7.982;2024-03-02T01:28:12;95515.78;;;3.53;100.00
47366;BME280;33105;47.964;7.982;2024-03-02T01:31:14;95518.78;;;3.57;100.00
47366;BME280;33105;47.964;7.982;2024-03-02T01:34:29;95526.25;;;3.88;100.00
47366;BME280;33105;47.964;7.982;2024-03-02T01:37:43;95521.66;;;3.67;100.00
47366;BME280;33105;47.964;7.982;2024-03-02T01:40:49;95523.41;;;3.78;100.00
47366;BME280;33105;47.964;7.982;2024-03-02T01:43:51;95514.81;;;3.81;100.00
47366;BME280;33105;47.964;7.982;2024-03-02T01:46:53;95519.41;;;3.81;100.00
47366;BME280;33105;47.964;7.982;2024-03-02T01:49:55;95518.16;;;3.88;100.00
47366;BME280;33105;47.964;7.982;2024-03-02T01:53:00;95526.69;;;4.02;100.00
47366;BME280;33105;47.964;7.982;2024-03-02T01:56:05;95526.84;;;3.90;100.00
47366;BME280;33105;47.964;7.982;2024-03-02T01:59:08;95517.66;;;3.91;100.00
47366;BME280;33105;47.964;7.982;2024-03-02T02:02:09;95520.84;;;3.88;100.00
47366;BME280;33105;47.964;7.982;2024-03-02T02:05:11;95523.00;;;3.86;100.00
47366;BME280;33105;47.964;7.982;2024-03-02T02:08:22;95513.94;;;3.97;100.00
47366;BME280;33105;47.964;7.982;2024-03-02T02:19:42;95509.66;;;3.80;100.00
47366;BME280;33105;47.964;7.982;2024-03-02T02:23:03;95501.97;;;3.71;100.00
47366;BME280;33105;47.964;7.982;2024-03-02T02:26:05;95489.09;;;3.57;100.00
47366;BME280;33105;47.964;7.982;2024-03-02T02:29:07;95502.34;;;3.58;100.00
47366;BME280;33105;47.964;7.982;2024-03-02T02:35:34;95496.47;;;3.83;100.00
47366;BME280;33105;47.964;7.982;2024-03-02T02:39:17;95481.34;;;3.82;100.00
47366;BME280;33105;47.964;7.982;2024-03-02T02:42:40;95485.03;;;3.76;100.00
47366;BME280;33105;47.964;7.982;2024-03-02T02:50:29;95463.38;;;3.93;100.00
47366;BME280;33105;47.964;7.982;2024-03-02T02:53:35;95473.38;;;3.70;100.00
47366;BME280;33105;47.964;7.982;2024-03-02T02:57:00;95470.78;;;3.81;100.00
47366;BME280;33105;47.964;7.982;2024-03-02T03:00:29;95479.06;;;3.74;100.00
47366;BME280;33105;47.964;7.982;2024-03-02T03:03:48;95473.38;;;3.70;100.00
47366;BME280;33105;47.964;7.982;2024-03-02T03:10:28;95456.34;;;3.70;100.00
47366;BME280;33105;47.964;7.982;2024-03-02T03:13:30;95460.09;;;3.69;100.00
47366;BME280;33105;47.964;7.982;2024-03-02T03:16:34;95454.50;;;3.75;99.60
47366;BME280;33105;47.964;7.982;2024-03-02T03:20:01;95456.69;;;3.79;99.94
47366;BME280;33105;47.964;7.982;2024-03-02T03:23:03;95458.66;;;3.83;99.16
47366;BME280;33105;47.964;7.982;2024-03-02T03:26:08;95452.19;;;3.84;99.73
47366;BME280;33105;47.964;7.982;2024-03-02T03:29:09;95445.28;;;3.93;98.97
47366;BME280;33105;47.964;7.982;2024-03-02T03:32:11;95446.78;;;3.84;99.14
47366;BME280;33105;47.964;7.982;2024-03-02T03:35:13;95447.91;;;3.88;98.53
47366;BME280;33105;47.964;7.982;2024-03-02T03:38:16;95442.00;;;3.91;98.10
47366;BME280;33105;47.964;7.982;2024-03-02T03:41:30;95446.94;;;3.99;98.79
47366;BME280;33105;47.964;7.982;2024-03-02T03:44:32;95447.41;;;3.91;98.28
47366;BME280;33105;47.964;7.982;2024-03-02T03:48:11;95453.13;;;4.17;95.93
47366;BME280;33105;47.964;7.982;2024-03-02T03:51:38;95455.03;;;3.94;96.82
47366;BME280;33105;47.964;7.982;2024-03-02T03:54:40;95457.19;;;4.19;94.57
47366;BME280;33105;47.964;7.982;2024-03-02T03:57:55;95456.56;;;4.12;95.39
47366;BME280;33105;47.964;7.982;2024-03-02T04:00:59;95450.69;;;3.93;95.79
47366;BME280;33105;47.964;7.982;2024-03-02T04:04:01;95450.06;;;3.86;96.28
47366;BME280;33105;47.964;7.982;2024-03-02T04:07:35;95443.75;;;4.02;95.98
47366;BME280;33105;47.964;7.982;2024-03-02T04:15:50;95456.91;;;4.21;95.34
47366;BME280;33105;47.964;7.982;2024-03-02T04:54:25;95478.41;;;4.59;92.06
47366;BME280;33105;47.964;7.982;2024-03-02T05:13:14;95477.25;;;4.50;92.71
47366;BME280;33105;47.964;7.982;2024-03-02T05:30:00;95480.50;;;4.52;93.00
47366;BME280;33105;47.964;7.982;2024-03-02T05:34:23;95479.69;;;4.52;93.27
47366;BME280;33105;47.964;7.982;2024-03-02T05:37:46;95482.13;;;4.53;91.52
47366;BME280;33105;47.964;7.982;2024-03-02T05:40:54;95471.50;;;4.73;89.82
47366;BME280;33105;47.964;7.982;2024-03-02T05:52:34;95483.06;;;4.96;89.99
47366;BME280;33105;47.964;7.982;2024-03-02T05:55:35;95480.91;;;4.93;89.73
47366;BME280;33105;47.964;7.982;2024-03-02T05:59:06;95483.00;;;4.86;89.55
47366;BME280;33105;47.964;7.982;2024-03-02T06:13:51;95482.16;;;5.12;88.93
47366;BME280;33105;47.964;7.982;2024-03-02T06:22:18;95466.44;;;5.51;87.71
47366;BME280;33105;47.964;7.982;2024-03-02T06:29:34;95464.44;;;5.36;86.85
47366;BME280;33105;47.964;7.982;2024-03-02T06:32:35;95457.59;;;5.66;85.67
47366;BME280;33105;47.964;7.982;2024-03-02T06:35:37;95451.38;;;5.28;87.29
47366;BME280;33105;47.964;7.982;2024-03-02T06:38:40;95456.28;;;5.78;85.32
47366;BME280;33105;47.964;7.982;2024-03-02T06:41:41;95458.81;;;5.95;83.81
47366;BME280;33105;47.964;7.982;2024-03-02T06:44:48;95450.16;;;5.93;82.95
47366;BME280;33105;47.964;7.982;2024-03-02T06:47:49;95457.66;;;5.81;84.08
47366;BME280;33105;47.964;7.982;2024-03-02T06:50:50;95453.31;;;5.80;85.08
47366;BME280;33105;47.964;7.982;2024-03-02T06:53:53;95455.59;;;5.93;83.11
47366;BME280;33105;47.964;7.982;2024-03-02T06:56:54;95452.63;;;6.00;83.07
47366;BME280;33105;47.964;7.982;2024-03-02T06:59:56;95468.47;;;5.76;84.16
47366;BME280;33105;47.964;7.982;2024-03-02T07:03:00;95468.97;;;5.68;84.79
47366;BME280;33105;47.964;7.982;2024-03-02T07:06:01;95470.06;;;5.72;84.95
47366;BME280;33105;47.964;7.982;2024-03-02T07:09:02;95475.91;;;5.91;83.69
47366;BME280;33105;47.964;7.982;2024-03-02T07:12:04;95469.09;;;5.88;85.29
47366;BME280;33105;47.964;7.982;2024-03-02T07:15:06;95477.72;;;5.80;86.28
47366;BME280;33105;47.964;7.982;2024-03-02T07:18:07;95476.84;;;6.22;83.60
47366;BME280;33105;47.964;7.982;2024-03-02T07:21:08;95474.38;;;6.15;83.40
47366;BME280;33105;47.964;7.982;2024-03-02T07:24:10;95471.03;;;5.93;85.41
47366;BME280;33105;47.964;7.982;2024-03-02T07:27:14;95465.50;;;6.35;82.40
47366;BME280;33105;47.964;7.982;2024-03-02T07:30:16;95468.28;;;6.60;81.55
47366;BME280;33105;47.964;7.982;2024-03-02T07:33:18;95466.59;;;6.39;83.15
47366;BME280;33105;47.964;7.982;2024-03-02T07:36:19;95458.41;;;6.24;83.98
47366;BME280;33105;47.964;7.982;2024-03-02T07:39:20;95465.16;;;6.21;85.37
47366;BME280;33105;47.964;7.982;2024-03-02T07:42:22;95459.75;;;6.26;84.47
47366;BME280;33105;47.964;7.982;2024-03-02T07:45:24;95458.72;;;6.32;84.85
47366;BME280;33105;47.964;7.982;2024-03-02T07:48:25;95461.19;;;6.39;85.36
47366;BME280;33105;47.964;7.982;2024-03-02T07:51:26;95472.56;;;6.41;84.76
47366;BME280;33105;47.964;7.982;2024-03-02T07:54:28;95463.34;;;6.47;85.42
47366;BME280;33105;47.964;7.982;2024-03-02T07:57:29;95451.44;;;6.68;85.15
47366;BME280;33105;47.964;7.982;2024-03-02T08:00:30;95453.13;;;6.85;83.01
47366;BME280;33105;47.964;7.982;2024-03-02T08:03:32;95455.28;;;7.03;83.30
47366;BME280;33105;47.964;7.982;2024-03-02T08:06:36;95453.63;;;7.42;80.70
47366;BME280;33105;47.964;7.982;2024-03-02T08:09:37;95450.94;;;7.27;82.12
47366;BME280;33105;47.964;7.982;2024-03-02T08:12:38;95443.56;;;7.53;80.77
47366;BME280;33105;47.964;7.982;2024-03-02T08:15:39;95444.78;;;8.01;76.79
47366;BME280;33105;47.964;7.982;2024-03-02T08:18:40;95444.41;;;8.28;76.32
47366;BME280;33105;47.964;7.982;2024-03-02T08:21:42;95443.22;;;7.80;77.94
47366;BME280;33105;47.964;7.982;2024-03-02T08:24:44;95442.19;;;7.66;81.25
47366;BME280;33105;47.964;7.982;2024-03-02T08:27:45;95444.25;;;7.99;78.85
47366;BME280;33105;47.964;7.982;2024-03-02T08:30:46;95448.41;;;8.46;76.82
47366;BME280;33105;47.964;7.982;2024-03-02T08:33:47;95437.94;;;8.68;76.24
47366;BME280;33105;47.964;7.982;2024-03-02T08:36:49;95435.53;;;9.01;71.78
47366;BME280;33105;47.964;7.982;2024-03-02T08:39:50;95430.59;;;9.08;72.93
47366;BME280;33105;47.964;7.982;2024-03-02T08:42:52;95433.19;;;9.52;68.81
47366;BME280;33105;47.964;7.982;2024-03-02T08:45:53;95428.09;;;9.40;70.87
47366;BME280;33105;47.964;7.982;2024-03-02T08:48:54;95429.72;;;9.41;71.04
47366;BME280;33105;47.964;7.982;2024-03-02T08:51:56;95428.91;;;9.70;69.07
47366;BME280;33105;47.964;7.982;2024-03-02T08:54:57;95423.56;;;9.88;67.43
47366;BME280;33105;47.964;7.982;2024-03-02T08:57:58;95429.00;;;9.88;69.15
47366;BME280;33105;47.964;7.982;2024-03-02T09:01:00;95425.66;;;10.15;68.27
47366;BME280;33105;47.964;7.982;2024-03-02T09:04:01;95422.81;;;10.49;64.50
47366;BME280;33105;47.964;7.982;2024-03-02T09:07:03;95414.84;;;10.53;64.83
47366;BME280;33105;47.964;7.982;2024-03-02T09:10:08;95416.75;;;10.52;64.69
47366;BME280;33105;47.964;7.982;2024-03-02T09:13:09;95422.97;;;10.58;65.91
47366;BME280;33105;47.964;7.982;2024-03-02T09:16:11;95424.97;;;10.71;64.29
47366;BME280;33105;47.964;7.982;2024-03-02T09:19:14;95426.34;;;10.69;64.75
47366;BME280;33105;47.964;7.982;2024-03-02T09:22:15;95422.53;;;10.70;66.69
47366;BME280;33105;47.964;7.982;2024-03-02T09:25:17;95412.09;;;10.90;64.12
47366;BME280;33105;47.964;7.982;2024-03-02T09:28:18;95416.69;;;10.76;65.08
47366;BME280;33105;47.964;7.982;2024-03-02T09:31:19;95412.19;;;11.04;63.02
47366;BME280;33105;47.964;7.982;2024-03-02T09:34:20;95412.00;;;10.63;66.31
47366;BME280;33105;47.964;7.982;2024-03-02T09:37:22;95409.41;;;11.23;63.52
47366;BME280;33105;47.964;7.982;2024-03-02T09:40:23;95405.41;;;11.34;66.42
47366;BME280;33105;47.964;7.982;2024-03-02T09:43:25;95411.00;;;11.10;64.95
47366;BME280;33105;47.964;7.982;2024-03-02T09:46:26;95406.81;;;10.62;64.43
47366;BME280;33105;47.964;7.982;2024-03-02T09:49:27;95404.16;;;10.75;65.20
47366;BME280;33105;47.964;7.982;2024-03-02T09:52:30;95394.63;;;11.24;61.57
47366;BME280;33105;47.964;7.982;2024-03-02T09:55:32;95388.47;;;11.00;66.93
47366;BME280;33105;47.964;7.982;2024-03-02T09:58:33;95391.72;;;11.02;64.56
47366;BME280;33105;47.964;7.982;2024-03-02T10:01:35;95385.81;;;11.13;65.12
47366;BME280;33105;47.964;7.982;2024-03-02T10:04:36;95389.31;;;11.14;62.90
47366;BME280;33105;47.964;7.982;2024-03-02T10:07:38;95381.81;;;11.06;63.32
47366;BME280;33105;47.964;7.982;2024-03-02T10:10:40;95372.44;;;11.12;61.34
47366;BME280;33105;47.964;7.982;2024-03-02T10:13:46;95375.88;;;11.17;63.80
47366;BME280;33105;47.964;7.982;2024-03-02T10:16:48;95370.41;;;11.17;64.52
47366;BME280;33105;47.964;7.982;2024-03-02T10:19:49;95367.19;;;10.97;64.28
47366;BME280;33105;47.964;7.982;2024-03-02T10:22:50;95367.09;;;10.88;64.18
47366;BME280;33105;47.964;7.982;2024-03-02T10:25:51;95356.63;;;10.90;62.49
47366;BME280;33105;47.964;7.982;2024-03-02T10:28:53;95361.59;;;11.07;62.83
47366;BME280;33105;47.964;7.982;2024-03-02T10:32:02;95354.28;;;11.16;61.34
47366;BME280;33105;47.964;7.982;2024-03-02T10:35:04;95351.47;;;11.21;61.54
47366;BME280;33105;47.964;7.982;2024-03-02T10:38:06;95355.59;;;11.37;60.72
47366;BME280;33105;47.964;7.982;2024-03-02T10:41:08;95353.75;;;11.46;60.15
47366;BME280;33105;47.964;7.982;2024-03-02T10:44:10;95348.88;;;11.43;59.42
47366;BME280;33105;47.964;7.982;2024-03-02T10:47:12;95340.34;;;11.91;56.80
47366;BME280;33105;47.964;7.982;2024-03-02T10:50:28;95333.44;;;12.57;52.23
47366;BME280;33105;47.964;7.982;2024-03-02T10:53:55;95329.75;;;12.25;53.17
47366;BME280;33105;47.964;7.982;2024-03-02T10:57:04;95319.25;;;12.55;52.59
47366;BME280;33105;47.964;7.982;2024-03-02T11:00:24;95317.34;;;12.78;53.15
47366;BME280;33105;47.964;7.982;2024-03-02T11:03:33;95319.25;;;12.77;54.82
47366;BME280;33105;47.964;7.982;2024-03-02T11:06:43;95313.78;;;13.00;51.60
47366;BME280;33105;47.964;7.982;2024-03-02T11:09:52;95308.91;;;12.97;50.97
47366;BME280;33105;47.964;7.982;2024-03-02T11:13:05;95316.91;;;12.84;51.44
47366;BME280;33105;47.964;7.982;2024-03-02T11:19:57;95311.06;;;12.64;52.75
47366;BME280;33105;47.964;7.982;2024-03-02T11:23:05;95298.13;;;13.00;52.63
47366;BME280;33105;47.964;7.982;2024-03-02T11:26:22;95297.94;;;12.97;53.30
47366;BME280;33105;47.964;7.982;2024-03-02T11:33:39;95293.66;;;13.26;50.47
47366;BME280;33105;47.964;7.982;2024-03-02T11:36:40;95287.38;;;13.66;46.47
47366;BME280;33105;47.964;7.982;2024-03-02T11:39:43;95279.75;;;13.23;48.39
47366;BME280;33105;47.964;7.982;2024-03-02T11:42:49;95282.03;;;13.60;49.28
47366;BME280;33105;47.964;7.982;2024-03-02T11:46:01;95291.03;;;13.52;48.61
47366;BME280;33105;47.964;7.982;2024-03-02T11:49:48;95277.91;;;13.80;45.94
47366;BME280;33105;47.964;7.982;2024-03-02T11:52:52;95275.47;;;13.87;51.20
47366;BME280;33105;47.964;7.982;2024-03-02T11:56:07;95275.56;;;13.65;51.76
47366;BME280;33105;47.964;7.982;2024-03-02T11:59:11;95270.63;;;13.76;50.75
47366;BME280;33105;47.964;7.982;2024-03-02T12:06:05;95257.13;;;13.48;48.64
47366;BME280;33105;47.964;7.982;2024-03-02T12:09:09;95253.44;;;13.53;49.36
47366;BME280;33105;47.964;7.982;2024-03-02T12:12:12;95245.41;;;13.25;48.50
47366;BME280;33105;47.964;7.982;2024-03-02T12:15:23;95239.31;;;13.37;50.53
47366;BME280;33105;47.964;7.982;2024-03-02T12:18:25;95235.75;;;13.28;49.02
47366;BME280;33105;47.964;7.982;2024-03-02T12:21:29;95240.47;;;13.36;49.12
47366;BME280;33105;47.964;7.982;2024-03-02T12:24:31;95233.56;;;13.47;49.16
47366;BME280;33105;47.964;7.982;2024-03-02T12:27:39;95232.78;;;13.55;48.58
47366;BME280;33105;47.964;7.982;2024-03-02T12:30:41;95231.66;;;13.65;48.89
47366;BME280;33105;47.964;7.982;2024-03-02T12:33:43;95220.66;;;13.48;48.47
47366;BME280;33105;47.964;7.982;2024-03-02T12:36:48;95215.84;;;13.53;50.41
47366;BME280;33105;47.964;7.982;2024-03-02T12:39:53;95213.31;;;13.74;49.21
47366;BME280;33105;47.964;7.982;2024-03-02T12:43:41;95214.34;;;14.04;48.35
47366;BME280;33105;47.964;7.982;2024-03-02T12:46:57;95208.50;;;14.40;51.33
47366;BME280;33105;47.964;7.982;2024-03-02T13:03:53;95178.97;;;14.54;46.65
47366;BME280;33105;47.964;7.982;2024-03-02T13:08:00;95175.91;;;14.56;47.83
47366;BME280;33105;47.964;7.982;2024-03-02T13:21:25;95172.09;;;14.86;46.73
47366;BME280;33105;47.964;7.982;2024-03-02T13:29:00;95163.63;;;15.09;46.95
47366;BME280;33105;47.964;7.982;2024-03-02T13:32:09;95159.28;;;15.08;44.60
47366;BME280;33105;47.964;7.982;2024-03-02T13:35:11;95158.34;;;14.86;45.37
47366;BME280;33105;47.964;7.982;2024-03-02T13:43:31;95162.13;;;14.39;47.55
47366;BME280;33105;47.964;7.982;2024-03-02T13:54:40;95140.16;;;14.56;46.54
47366;BME280;33105;47.964;7.982;2024-03-02T13:58:20;95127.84;;;14.62;46.99
47366;BME280;33105;47.964;7.982;2024-03-02T14:01:22;95138.34;;;14.60;47.72
47366;BME280;33105;47.964;7.982;2024-03-02T14:05:24;95133.00;;;14.72;45.98
47366;BME280;33105;47.964;7.982;2024-03-02T14:08:53;95133.31;;;14.79;45.79
47366;BME280;33105;47.964;7.982;2024-03-02T14:11:54;95127.91;;;14.45;46.08
47366;BME280;33105;47.964;7.982;2024-03-02T14:15:13;95129.16;;;14.39;47.47
47366;BME280;33105;47.964;7.982;2024-03-02T14:18:34;95134.69;;;14.13;45.70
47366;BME280;33105;47.964;7.982;2024-03-02T14:22:02;95136.47;;;14.00;45.72
47366;BME280;33105;47.964;7.982;2024-03-02T14:25:10;95135.97;;;13.98;45.80
47366;BME280;33105;47.964;7.982;2024-03-02T14:28:35;95136.28;;;13.88;46.86
47366;BME280;33105;47.964;7.982;2024-03-02T14:31:50;95142.75;;;13.92;45.99
47366;BME280;33105;47.964;7.982;2024-03-02T14:35:09;95139.81;;;13.62;45.37
47366;BME280;33105;47.964;7.982;2024-03-02T14:38:28;95137.41;;;13.70;46.03
47366;BME280;33105;47.964;7.982;2024-03-02T14:41:40;95141.44;;;13.55;46.53
47366;BME280;33105;47.964;7.982;2024-03-02T14:44:41;95143.88;;;13.56;46.49
47366;BME280;33105;47.964;7.982;2024-03-02T14:47:43;95128.38;;;13.60;47.67
47366;BME280;33105;47.964;7.982;2024-03-02T14:51:43;95134.78;;;13.47;49.37
47366;BME280;33105;47.964;7.982;2024-03-02T14:55:18;95129.78;;;13.32;49.90
47366;BME280;33105;47.964;7.982;2024-03-02T14:58:20;95132.19;;;13.34;50.95
47366;BME280;33105;47.964;7.982;2024-03-02T15:01:29;95130.41;;;13.29;50.93
47366;BME280;33105;47.964;7.982;2024-03-02T15:04:44;95125.03;;;13.15;52.05
47366;BME280;33105;47.964;7.982;2024-03-02T15:07:46;95124.03;;;13.11;52.92
47366;BME280;33105;47.964;7.982;2024-03-02T15:10:49;95121.13;;;13.08;52.67
47366;BME280;33105;47.964;7.982;2024-03-02T15:13:50;95115.34;;;13.18;52.76
47366;BME280;33105;47.964;7.982;2024-03-02T15:21:57;95104.44;;;13.35;55.30
47366;BME280;33105;47.964;7.982;2024-03-02T15:26:26;95102.50;;;13.27;54.79
47366;BME280;33105;47.964;7.982;2024-03-02T15:32:59;95086.19;;;13.22;56.04
47366;BME280;33105;47.964;7.982;2024-03-02T15:36:26;95078.09;;;13.17;58.21
47366;BME280;33105;47.964;7.982;2024-03-02T15:39:45;95070.47;;;13.14;55.83
47366;BME280;33105;47.964;7.982;2024-03-02T15:42:46;95078.38;;;13.07;55.33
47366;BME280;33105;47.964;7.982;2024-03-02T15:45:48;95056.69;;;12.88;52.75
47366;BME280;33105;47.964;7.982;2024-03-02T15:48:49;95065.25;;;12.86;53.84
47366;BME280;33105;47.964;7.982;2024-03-02T15:51:55;95063.97;;;12.84;53.83
47366;BME280;33105;47.964;7.982;2024-03-02T15:55:16;95062.66;;;12.81;51.51
47366;BME280;33105;47.964;7.982;2024-03-02T15:58:18;95051.84;;;12.76;52.85
47366;BME280;33105;47.964;7.982;2024-03-02T16:01:28;95043.00;;;12.79;52.60
47366;BME280;33105;47.964;7.982;2024-03-02T16:04:36;95035.56;;;12.88;53.89
47366;BME280;33105;47.964;7.982;2024-03-02T16:11:12;95028.44;;;12.70;51.79
47366;BME280;33105;47.964;7.982;2024-03-02T16:14:14;95022.59;;;12.54;51.41
47366;BME280;33105;47.964;7.982;2024-03-02T16:17:15;95018.41;;;12.57;51.80
47366;BME280;33105;47.964;7.982;2024-03-02T16:20:17;95010.81;;;12.54;52.01
47366;BME280;33105;47.964;7.982;2024-03-02T16:23:39;95011.00;;;12.57;55.24
47366;BME280;33105;47.964;7.982;2024-03-02T16:27:40;95011.41;;;12.82;53.25
47366;BME280;33105;47.964;7.982;2024-03-02T16:31:17;95022.56;;;13.03;52.17
47366;BME280;33105;47.964;7.982;2024-03-02T16:34:22;95019.78;;;12.85;51.73
47366;BME280;33105;47.964;7.982;2024-03-02T16:40:53;95031.31;;;12.65;53.24
47366;BME280;33105;47.964;7.982;2024-03-02T16:44:10;95036.78;;;12.25;53.28
47366;BME280;33105;47.964;7.982;2024-03-02T16:47:12;95039.19;;;11.96;53.50
47366;BME280;33105;47.964;7.982;2024-03-02T16:50:14;95044.75;;;11.82;53.31
47366;BME280;33105;47.964;7.982;2024-03-02T16:53:17;95050.09;;;11.87;53.70
47366;BME280;33105;47.964;7.982;2024-03-02T16:56:20;95055.22;;;11.89;53.67
47366;BME280;33105;47.964;7.982;2024-03-02T16:59:22;95050.94;;;11.74;53.54
47366;BME280;33105;47.964;7.982;2024-03-02T17:02:23;95042.81;;;11.83;54.00
47366;BME280;33105;47.964;7.982;2024-03-02T17:05:26;95039.09;;;11.65;53.49
47366;BME280;33105;47.964;7.982;2024-03-02T17:08:28;95035.22;;;11.57;53.79
47366;BME280;33105;47.964;7.982;2024-03-02T17:11:29;95032.59;;;11.52;54.21
47366;BME280;33105;47.964;7.982;2024-03-02T17:14:33;95033.41;;;11.53;54.84
47366;BME280;33105;47.964;7.982;2024-03-02T17:17:34;95040.78;;;11.52;55.09
47366;BME280;33105;47.964;7.982;2024-03-02T17:20:36;95039.78;;;11.48;55.70
47366;BME280;33105;47.964;7.982;2024-03-02T17:23:37;95048.66;;;11.32;57.09
47366;BME280;33105;47.964;7.982;2024-03-02T17:26:38;95056.69;;;11.14;58.08
47366;BME280;33105;47.964;7.982;2024-03-02T17:29:40;95050.84;;;11.07;58.63
47366;BME280;33105;47.964;7.982;2024-03-02T17:32:45;95056.09;;;10.90;58.92
47366;BME280;33105;47.964;7.982;2024-03-02T17:35:46;95063.63;;;10.84;59.94
47366;BME280;33105;47.964;7.982;2024-03-02T17:38:51;95066.25;;;10.62;62.96
47366;BME280;33105;47.964;7.982;2024-03-02T17:41:53;95059.88;;;10.39;62.92
47366;BME280;33105;47.964;7.982;2024-03-02T17:44:57;95063.78;;;10.19;63.81
47366;BME280;33105;47.964;7.982;2024-03-02T17:47:59;95066.16;;;10.07;65.79
47366;BME280;33105;47.964;7.982;2024-03-02T17:51:06;95072.97;;;9.91;66.82
47366;BME280;33105;47.964;7.982;2024-03-02T17:54:07;95061.66;;;9.65;65.69
47366;BME280;33105;47.964;7.982;2024-03-02T17:57:09;95063.91;;;9.63;66.82
47366;BME280;33105;47.964;7.982;2024-03-02T18:00:11;95068.34;;;9.40;66.36
47366;BME280;33105;47.964;7.982;2024-03-02T18:03:15;95058.41;;;9.31;66.86
47366;BME280;33105;47.964;7.982;2024-03-02T18:06:16;95064.81;;;9.21;67.60
47366;BME280;33105;47.964;7.982;2024-03-02T18:09:17;95058.84;;;9.00;67.99
47366;BME280;33105;47.964;7.982;2024-03-02T18:12:18;95055.94;;;8.92;67.86
47366;BME280;33105;47.964;7.982;2024-03-02T18:15:20;95056.84;;;8.87;68.92
47366;BME280;33105;47.964;7.982;2024-03-02T18:18:22;95054.34;;;8.91;70.61
47366;BME280;33105;47.964;7.982;2024-03-02T18:21:24;95052.28;;;8.82;69.94
47366;BME280;33105;47.964;7.982;2024-03-02T18:24:25;95045.00;;;8.54;70.77
47366;BME280;33105;47.964;7.982;2024-03-02T18:27:29;95049.03;;;8.38;71.98
47366;BME280;33105;47.964;7.982;2024-03-02T18:30:30;95039.84;;;8.52;71.75
47366;BME280;33105;47.964;7.982;2024-03-02T18:33:32;95030.13;;;8.46;71.76
47366;BME280;33105;47.964;7.982;2024-03-02T18:36:33;95029.78;;;8.53;72.04
47366;BME280;33105;47.964;7.982;2024-03-02T18:39:35;95015.94;;;8.49;72.71
47366;BME280;33105;47.964;7.982;2024-03-02T18:42:36;95006.50;;;8.84;70.99
47366;BME280;33105;47.964;7.982;2024-03-02T18:45:37;95001.78;;;8.71;71.65
47366;BME280;33105;47.964;7.982;2024-03-02T18:48:38;95000.81;;;8.62;71.43
47366;BME280;33105;47.964;7.982;2024-03-02T18:51:40;95002.25;;;8.31;73.95
47366;BME280;33105;47.964;7.982;2024-03-02T18:54:43;95004.59;;;8.42;73.60
47366;BME280;33105;47.964;7.982;2024-03-02T18:57:44;95002.53;;;8.34;74.34
47366;BME280;33105;47.964;7.982;2024-03-02T19:00:47;94991.34;;;8.36;73.66
47366;BME280;33105;47.964;7.982;2024-03-02T19:03:50;94990.28;;;8.32;73.24
47366;BME280;33105;47.964;7.982;2024-03-02T19:06:51;94990.97;;;8.42;73.56
47366;BME280;33105;47.964;7.982;2024-03-02T19:09:52;94988.31;;;8.61;75.15
47366;BME280;33105;47.964;7.982;2024-03-02T19:12:56;94977.28;;;8.71;75.77
47366;BME280;33105;47.964;7.982;2024-03-02T19:15:57;94987.16;;;8.86;76.06
47366;BME280;33105;47.964;7.982;2024-03-02T19:18:59;94980.50;;;8.92;76.44
47366;BME280;33105;47.964;7.982;2024-03-02T19:22:00;94983.69;;;8.99;77.44
47366;BME280;33105;47.964;7.982;2024-03-02T19:25:02;94987.66;;;9.07;77.97
47366;BME280;33105;47.964;7.982;2024-03-02T19:28:03;94982.94;;;9.12;78.28
47366;BME280;33105;47.964;7.982;2024-03-02T19:31:05;94987.69;;;9.39;77.62
47366;BME280;33105;47.964;7.982;2024-03-02T19:34:06;94995.06;;;9.39;77.60
47366;BME280;33105;47.964;7.982;2024-03-02T19:37:08;95008.81;;;9.47;78.09
47366;BME280;33105;47.964;7.982;2024-03-02T19:40:10;95010.44;;;9.48;78.17
47366;BME280;33105;47.964;7.982;2024-03-02T19:43:11;95019.03;;;9.88;76.47
47366;BME280;33105;47.964;7.982;2024-03-02T19:46:15;95022.91;;;10.01;76.19
47366;BME280;33105;47.964;7.982;2024-03-02T19:49:16;95025.97;;;10.13;75.69
47366;BME280;33105;47.964;7.982;2024-03-02T19:52:18;95023.91;;;10.18;75.59
47366;BME280;33105;47.964;7.982;2024-03-02T19:55:19;95025.72;;;9.96;76.62
47366;BME280;33105;47.964;7.982;2024-03-02T19:58:22;95032.69;;;10.02;76.55
47366;BME280;33105;47.964;7.982;2024-03-02T20:01:23;95030.56;;;9.99;77.10
47366;BME280;33105;47.964;7.982;2024-03-02T20:04:24;95034.50;;;10.39;75.68
47366;BME280;33105;47.964;7.982;2024-03-02T20:07:25;95046.94;;;10.45;75.11
47366;BME280;33105;47.964;7.982;2024-03-02T20:10:27;95034.69;;;10.29;76.11